createdAt,value
2022-12-01T05:00:33.772Z,99394.53
2022-12-01T05:04:46.052Z,99401.94
2022-12-01T05:08:59.355Z,99393.00
2022-12-01T05:13:10.841Z,99396.31
2022-12-01T05:17:22.454Z,99395.72
2022-12-01T05:21:33.941Z,99405.75
2022-12-01T05:25:45.524Z,99399.13
2022-12-01T05:29:57.033Z,99399.94
2022-12-01T05:34:09.095Z,99403.38
2022-12-01T05:38:21.189Z,99405.75
2022-12-01T05:42:32.767Z,99394.44
2022-12-01T05:46:44.312Z,99394.19
2022-12-01T05:50:55.910Z,99400.69
2022-12-01T05:55:07.742Z,99398.19
2022-12-01T05:59:19.308Z,99401.50
2022-12-01T06:03:30.810Z,99399.63
2022-12-01T06:07:42.932Z,99398.78
2022-12-01T06:11:54.472Z,99402.06
2022-12-01T06:16:06.625Z,99400.78
2022-12-01T06:20:18.366Z,99401.84
2022-12-01T06:24:29.902Z,99397.72
2022-12-01T06:28:41.408Z,99400.53
2022-12-01T06:32:52.923Z,99408.31
2022-12-01T06:37:04.543Z,99408.31
2022-12-01T06:41:16.023Z,99414.31
2022-12-01T06:45:27.588Z,99410.22
2022-12-01T06:49:39.094Z,99423.88
2022-12-01T06:54:00.862Z,99424.56
2022-12-01T06:58:16.688Z,99422.56
2022-12-01T07:02:28.358Z,99433.38
2022-12-01T07:06:39.936Z,99433.53
2022-12-01T07:11:08.545Z,99434.81
2022-12-01T07:15:20.091Z,99440.31
2022-12-01T07:19:31.650Z,99452.34
2022-12-01T07:23:43.154Z,99457.59
2022-12-01T07:27:54.630Z,99455.59
2022-12-01T07:32:06.247Z,99453.75
2022-12-01T07:36:17.758Z,99462.56
2022-12-01T07:40:29.266Z,99458.38
2022-12-01T07:44:40.762Z,99472.88
2022-12-01T07:48:56.669Z,99467.81
2022-12-01T07:53:08.174Z,99470.41
2022-12-01T07:57:20.477Z,99479.81
2022-12-01T08:01:32.420Z,99478.84
2022-12-01T08:05:44.000Z,99478.72
2022-12-01T08:09:55.475Z,99480.53
2022-12-01T08:14:07.011Z,99485.00
2022-12-01T08:18:18.622Z,99485.00
2022-12-01T08:22:30.177Z,99490.66
2022-12-01T08:26:41.762Z,99497.47
2022-12-01T08:30:53.348Z,99496.53
2022-12-01T08:35:05.283Z,99502.75
2022-12-01T08:39:16.826Z,99496.56
2022-12-01T08:43:56.149Z,99500.56
2022-12-01T08:48:00.906Z,99511.75
2022-12-01T08:52:12.408Z,99506.19
2022-12-01T08:56:30.284Z,99503.84
2022-12-01T09:00:41.868Z,99507.56
2022-12-01T09:04:53.345Z,99511.19
2022-12-01T09:09:05.280Z,99518.25
2022-12-01T09:13:16.814Z,99514.50
2022-12-01T09:17:28.412Z,99518.25
2022-12-01T09:21:40.441Z,99522.84
2022-12-01T09:25:52.926Z,99523.75
2022-12-01T09:30:05.172Z,99521.63
2022-12-01T09:34:19.762Z,99529.16
2022-12-01T09:38:33.217Z,99522.63
2022-12-01T09:42:47.511Z,99530.63
2022-12-01T09:47:09.098Z,99525.81
2022-12-01T09:51:23.917Z,99520.31
2022-12-01T09:55:35.740Z,99528.59
2022-12-01T09:59:47.859Z,99515.25
2022-12-01T10:04:05.778Z,99515.63
2022-12-01T10:08:26.839Z,99516.69
2022-12-01T10:12:42.229Z,99510.00
2022-12-01T10:17:12.994Z,99507.53
2022-12-01T10:21:49.386Z,99499.88
2022-12-01T10:26:14.439Z,99501.81
2022-12-01T10:30:27.099Z,99501.16
2022-12-01T10:34:41.788Z,99506.31
2022-12-01T10:38:53.957Z,99500.69
2022-12-01T10:43:05.441Z,99501.69
2022-12-01T10:47:22.026Z,99498.72
2022-12-01T10:51:50.238Z,99491.97
2022-12-01T10:56:08.603Z,99496.91
2022-12-01T11:00:58.041Z,99500.03
2022-12-01T11:05:07.476Z,99498.19
2022-12-01T11:09:30.058Z,99488.19
2022-12-01T11:13:42.222Z,99485.69
2022-12-01T11:18:02.745Z,99479.47
2022-12-01T11:22:25.123Z,99481.03
2022-12-01T11:26:36.639Z,99476.16
2022-12-01T11:30:59.273Z,99481.16
2022-12-01T11:35:13.628Z,99479.03
2022-12-01T11:39:42.388Z,99478.81
2022-12-01T11:44:01.459Z,99480.91
2022-12-01T11:48:15.286Z,99470.19
2022-12-01T11:52:36.607Z,99469.66
2022-12-01T11:56:56.193Z,99461.59
2022-12-01T12:01:46.010Z,99468.38
2022-12-01T12:06:38.432Z,99462.22
2022-12-01T12:10:55.721Z,99475.09
2022-12-01T12:15:43.203Z,99463.97
2022-12-01T12:20:23.850Z,99465.41
2022-12-01T12:24:51.544Z,99463.53
2022-12-01T12:29:32.324Z,99470.59
2022-12-01T12:34:10.816Z,99463.38
2022-12-01T12:38:54.233Z,99457.16
2022-12-01T12:43:48.403Z,99454.19
2022-12-01T12:48:28.219Z,99450.38
2022-12-01T12:52:44.543Z,99458.06
2022-12-01T12:57:03.411Z,99452.53
2022-12-01T13:01:23.062Z,99447.94
2022-12-01T13:05:47.508Z,99441.53
2022-12-01T13:10:08.501Z,99439.28
2022-12-01T13:14:27.799Z,99439.50
2022-12-01T13:18:42.350Z,99441.06
2022-12-01T13:22:54.847Z,99440.75
2022-12-01T13:27:16.193Z,99444.16
2022-12-01T13:31:28.307Z,99439.13
2022-12-01T13:35:40.729Z,99437.19
2022-12-01T13:39:54.420Z,99431.09
2022-12-01T13:44:08.835Z,99437.19
2022-12-01T13:48:48.243Z,99424.88
2022-12-01T13:53:23.621Z,99422.88
2022-12-01T13:57:48.945Z,99411.81
2022-12-01T14:02:15.843Z,99417.13
2022-12-01T14:06:52.396Z,99418.50
2022-12-01T14:11:19.529Z,99414.03
2022-12-01T14:15:42.388Z,99415.28
2022-12-01T14:19:55.632Z,99411.34
2022-12-01T14:24:07.380Z,99418.16
2022-12-01T14:29:10.789Z,99421.19
2022-12-01T14:33:57.759Z,99421.69
2022-12-01T14:38:10.425Z,99412.03
2022-12-01T14:42:53.348Z,99414.03
2022-12-01T14:47:16.972Z,99418.50
2022-12-01T14:51:34.858Z,99420.03
2022-12-01T14:55:53.154Z,99426.34
2022-12-01T15:00:06.691Z,99421.63
2022-12-01T15:04:18.665Z,99415.41
2022-12-01T15:13:30.495Z,99417.06
2022-12-01T15:17:41.987Z,99412.44
2022-12-01T15:21:53.435Z,99423.03
2022-12-01T15:26:05.067Z,99413.44
2022-12-01T15:30:16.787Z,99424.81
2022-12-01T15:34:32.251Z,99414.69
2022-12-01T15:38:47.102Z,99419.16
2022-12-01T15:43:06.974Z,99409.97
2022-12-01T15:47:37.801Z,99417.97
2022-12-01T15:51:50.545Z,99420.34
2022-12-01T15:56:11.138Z,99422.19
2022-12-01T16:00:23.164Z,99429.94
2022-12-01T16:04:35.364Z,99416.81
2022-12-01T16:08:59.431Z,99417.31
2022-12-01T16:13:36.063Z,99420.78
2022-12-01T16:17:52.760Z,99424.63
2022-12-01T16:22:10.215Z,99420.56
2022-12-01T16:26:22.659Z,99420.91
2022-12-01T16:30:36.978Z,99421.47
2022-12-01T16:34:50.780Z,99423.16
2022-12-01T16:39:07.172Z,99423.09
2022-12-01T16:43:21.406Z,99417.44
2022-12-01T16:47:32.888Z,99417.31
2022-12-01T16:51:59.268Z,99412.94
2022-12-01T16:56:13.993Z,99409.13
2022-12-01T17:00:26.032Z,99414.56
2022-12-01T17:04:37.629Z,99416.94
2022-12-01T17:08:49.220Z,99413.84
2022-12-01T17:13:00.732Z,99418.72
2022-12-01T17:17:12.183Z,99412.59
2022-12-01T17:21:23.625Z,99429.47
2022-12-01T17:25:35.379Z,99440.06
2022-12-01T17:29:47.024Z,99436.56
2022-12-01T17:33:58.606Z,99434.69
2022-12-01T17:38:10.160Z,99444.31
2022-12-01T17:42:22.092Z,99445.38
2022-12-01T17:46:33.636Z,99447.22
2022-12-01T17:50:45.339Z,99463.75
2022-12-01T17:54:56.840Z,99465.13
2022-12-01T17:59:08.453Z,99463.47
2022-12-01T18:03:20.748Z,99473.28
2022-12-01T18:07:32.282Z,99457.88
2022-12-01T18:11:43.771Z,99449.19
2022-12-01T18:15:55.272Z,99448.81
2022-12-01T18:20:07.552Z,99440.31
2022-12-01T18:24:19.034Z,99432.28
2022-12-01T18:28:30.909Z,99428.88
2022-12-01T18:32:42.400Z,99431.44
2022-12-01T18:36:53.969Z,99433.81
2022-12-01T18:41:05.696Z,99432.53
2022-12-01T18:45:21.287Z,99432.59
2022-12-01T18:49:33.011Z,99440.34
2022-12-01T18:53:47.743Z,99433.97
2022-12-01T18:57:59.319Z,99434.88
2022-12-01T19:02:10.830Z,99437.28
2022-12-01T19:06:22.643Z,99443.38
2022-12-01T19:10:34.350Z,99445.84
2022-12-01T19:14:45.953Z,99440.59
2022-12-01T19:18:57.432Z,99437.69
2022-12-01T19:23:08.877Z,99428.81
2022-12-01T19:27:21.873Z,99429.50
2022-12-01T19:31:34.126Z,99439.84
2022-12-01T19:35:47.554Z,99439.19
2022-12-01T19:39:59.055Z,99433.56
2022-12-01T19:44:11.691Z,99428.19
2022-12-01T19:48:23.490Z,99434.38
2022-12-01T19:52:36.529Z,99429.81
2022-12-01T19:56:48.921Z,99429.81
2022-12-01T20:01:09.977Z,99422.41
2022-12-01T20:05:21.792Z,99431.53
2022-12-01T20:09:33.362Z,99437.00
2022-12-01T20:13:46.067Z,99433.06
2022-12-01T20:17:57.507Z,99438.22
2022-12-01T20:22:08.960Z,99422.50
2022-12-01T20:26:24.907Z,99422.94
2022-12-01T20:30:40.538Z,99430.97
2022-12-01T20:34:52.231Z,99431.41
2022-12-01T20:39:05.528Z,99428.47
2022-12-01T20:43:17.504Z,99426.47
2022-12-01T20:47:29.048Z,99416.13
2022-12-01T20:51:40.550Z,99421.91
2022-12-01T20:55:52.150Z,99406.19
2022-12-01T21:00:05.518Z,99411.13
2022-12-01T21:04:17.588Z,99418.88
2022-12-01T21:08:29.188Z,99420.41
2022-12-01T21:13:01.219Z,99422.72
2022-12-01T21:17:41.928Z,99422.63
2022-12-01T21:21:53.376Z,99421.56
2022-12-01T21:26:13.932Z,99430.97
2022-12-01T21:30:26.266Z,99422.50
2022-12-01T21:34:37.878Z,99420.63
2022-12-01T21:38:54.926Z,99413.53
2022-12-01T21:43:22.540Z,99410.31
2022-12-01T21:47:34.615Z,99407.16
2022-12-01T21:51:48.015Z,99412.00
2022-12-01T21:55:59.478Z,99412.72
2022-12-01T22:00:26.513Z,99401.31
2022-12-01T22:04:37.928Z,99404.47
2022-12-01T22:08:59.606Z,99409.44
2022-12-01T22:13:11.042Z,99405.19
2022-12-01T22:17:22.554Z,99401.28
2022-12-01T22:21:37.250Z,99398.28
2022-12-01T22:25:48.802Z,99391.81
